createdAt,value
2019-03-29T07:30:55.757Z,21.55
2019-03-29T07:33:32.405Z,19.60
2019-03-29T07:36:02.487Z,20.82
2019-03-29T07:38:30.875Z,22.17
2019-03-29T07:40:59.274Z,23.10
2019-03-29T07:43:27.729Z,21.48
2019-03-29T07:45:57.204Z,21.42
2019-03-29T07:48:29.913Z,23.38
2019-03-29T07:50:58.334Z,22.60
2019-03-29T07:53:27.791Z,22.80
2019-03-29T07:55:56.199Z,25.10
2019-03-29T07:58:24.615Z,25.62
2019-03-29T08:00:53.005Z,24.30
2019-03-29T08:03:22.663Z,26.10
2019-03-29T08:05:51.525Z,27.58
2019-03-29T08:08:24.244Z,26.05
2019-03-29T08:10:53.926Z,24.75
2019-03-29T08:13:24.233Z,26.52
2019-03-29T08:15:52.604Z,26.30
2019-03-29T08:18:22.534Z,26.17
2019-03-29T08:20:50.872Z,25.95
2019-03-29T08:23:19.283Z,24.12
2019-03-29T08:25:47.687Z,24.30
2019-03-29T08:28:16.089Z,25.25
2019-03-29T08:30:44.505Z,25.57
2019-03-29T08:33:16.560Z,23.70
2019-03-29T08:38:12.574Z,23.38
2019-03-29T08:40:40.977Z,19.85
2019-03-29T08:43:09.371Z,20.12
2019-03-29T08:45:37.778Z,18.87
2019-03-29T08:48:10.009Z,19.55
2019-03-29T08:50:38.398Z,18.57
2019-03-29T08:53:06.845Z,18.98
2019-03-29T08:55:45.520Z,18.60
2019-03-29T08:58:05.355Z,18.32
2019-03-29T09:00:35.908Z,17.80
2019-03-29T09:03:08.267Z,19.23
2019-03-29T09:05:39.113Z,19.55
2019-03-29T09:08:06.858Z,18.17
2019-03-29T09:10:35.251Z,19.65
2019-03-29T09:13:04.532Z,19.00
2019-03-29T09:15:33.247Z,19.15
2019-03-29T09:18:01.656Z,19.50
2019-03-29T09:20:30.066Z,20.70
2019-03-29T09:22:58.465Z,19.70
2019-03-29T09:25:26.856Z,20.37
2019-03-29T09:27:55.267Z,20.43
2019-03-29T09:30:23.832Z,21.37
2019-03-29T09:32:56.073Z,21.12
2019-03-29T09:35:24.466Z,21.43
2019-03-29T09:37:56.268Z,21.57
2019-03-29T09:40:23.042Z,20.52
2019-03-29T09:43:06.162Z,21.95
2019-03-29T09:45:25.430Z,22.15
2019-03-29T09:47:55.939Z,21.00
2019-03-29T09:50:27.507Z,22.50
2019-03-29T09:52:55.202Z,21.97
2019-03-29T09:55:23.612Z,23.35
2019-03-29T09:57:52.010Z,22.17
2019-03-29T10:00:23.431Z,22.62
2019-03-29T10:02:51.094Z,22.73
2019-03-29T10:05:20.227Z,24.27
2019-03-29T10:07:49.991Z,22.65
2019-03-29T10:10:21.107Z,22.25
2019-03-29T10:12:49.507Z,23.35
2019-03-29T10:15:17.893Z,23.70
2019-03-29T10:17:46.315Z,25.55
2019-03-29T10:20:14.947Z,25.97
2019-03-29T10:22:43.361Z,25.17
2019-03-29T10:25:19.138Z,25.90
2019-03-29T10:27:42.159Z,26.70
2019-03-29T10:30:11.515Z,25.90
2019-03-29T10:32:39.909Z,23.92
2019-03-29T10:35:09.560Z,25.00
2019-03-29T10:37:39.520Z,24.87
2019-03-29T10:40:08.388Z,26.02
2019-03-29T10:42:40.408Z,24.40
2019-03-29T10:45:08.919Z,23.87
2019-03-29T10:47:43.583Z,24.25
2019-03-29T10:50:07.895Z,24.50
2019-03-29T10:52:36.306Z,25.30
2019-03-29T10:55:05.457Z,24.25
2019-03-29T10:57:33.841Z,24.75
2019-03-29T11:00:02.249Z,23.30
2019-03-29T11:02:30.659Z,25.05
2019-03-29T11:05:01.694Z,24.87
2019-03-29T11:07:30.111Z,24.72
2019-03-29T11:09:58.518Z,26.67
2019-03-29T11:12:26.925Z,27.05
2019-03-29T11:14:55.306Z,26.52
2019-03-29T11:17:23.724Z,26.00
2019-03-29T11:19:52.168Z,27.30
2019-03-29T11:22:20.577Z,25.82
2019-03-29T11:24:49.006Z,27.33
2019-03-29T11:27:22.663Z,27.73
2019-03-29T11:29:51.158Z,27.13
2019-03-29T11:32:19.565Z,28.17
2019-03-29T11:34:51.634Z,27.33
2019-03-29T11:37:20.033Z,27.52
2019-03-29T11:39:48.457Z,26.82
2019-03-29T11:42:16.840Z,23.92
2019-03-29T11:44:45.247Z,25.23
2019-03-29T11:47:13.657Z,28.12
2019-03-29T11:49:42.048Z,29.47
2019-03-29T11:52:10.584Z,29.98
2019-03-29T11:54:38.956Z,28.90
2019-03-29T11:57:07.360Z,25.95
2019-03-29T11:59:35.756Z,24.37
2019-03-29T12:02:04.173Z,26.05
2019-03-29T12:04:33.599Z,25.62
2019-03-29T12:07:03.668Z,26.77
2019-03-29T12:09:32.175Z,24.27
2019-03-29T12:12:00.575Z,24.82
2019-03-29T12:14:31.004Z,26.82
2019-03-29T12:17:31.968Z,25.08
2019-03-29T12:20:00.508Z,24.95
2019-03-29T12:22:28.946Z,25.88
2019-03-29T12:24:57.336Z,24.87
2019-03-29T12:27:25.771Z,24.47
2019-03-29T12:30:01.494Z,24.12
2019-03-29T12:32:34.434Z,24.43
2019-03-29T12:35:02.809Z,24.47
2019-03-29T12:37:31.209Z,23.90
2019-03-29T12:39:59.613Z,23.60
2019-03-29T12:42:28.052Z,25.23
2019-03-29T12:44:56.451Z,24.52
2019-03-29T12:47:24.830Z,25.72
2019-03-29T12:49:53.224Z,26.37
2019-03-29T12:52:21.654Z,26.05
2019-03-29T12:54:59.227Z,26.93
2019-03-29T12:57:27.646Z,27.58
2019-03-29T12:59:57.009Z,25.45
2019-03-29T13:02:25.401Z,24.95
2019-03-29T13:04:53.805Z,24.57
2019-03-29T13:07:22.233Z,25.70
2019-03-29T13:09:50.632Z,24.00
2019-03-29T13:12:19.107Z,24.47
2019-03-29T13:14:47.518Z,26.07
2019-03-29T13:17:16.605Z,25.45
2019-03-29T13:19:45.090Z,24.90
2019-03-29T13:22:13.986Z,24.07
2019-03-29T13:24:42.379Z,25.88
2019-03-29T13:27:14.706Z,24.52
2019-03-29T13:32:10.712Z,24.05
2019-03-29T13:34:46.748Z,22.37
2019-03-29T13:38:07.512Z,23.47
2019-03-29T13:40:35.907Z,24.40
2019-03-29T13:44:06.125Z,27.35
2019-03-29T13:46:40.819Z,24.87
2019-03-29T13:49:09.224Z,24.47
2019-03-29T13:52:13.934Z,23.60
2019-03-29T13:54:42.323Z,24.77
2019-03-29T13:58:11.238Z,23.52
2019-03-29T14:00:39.652Z,23.13
2019-03-29T14:03:17.613Z,24.15
2019-03-29T14:05:46.223Z,24.60
2019-03-29T14:08:22.624Z,24.07
2019-03-29T14:10:53.708Z,23.87
2019-03-29T14:14:01.741Z,25.40
2019-03-29T14:16:30.129Z,25.50
2019-03-29T14:18:58.532Z,24.60
2019-03-29T14:21:26.963Z,23.95
2019-03-29T14:23:55.437Z,23.90
2019-03-29T14:26:23.829Z,25.88
2019-03-29T14:28:52.254Z,24.57
2019-03-29T14:31:20.634Z,26.23
2019-03-29T14:34:57.739Z,26.45
2019-03-29T14:37:26.134Z,27.82
2019-03-29T14:39:57.614Z,26.82
2019-03-29T14:42:26.028Z,26.97
2019-03-29T14:44:54.441Z,26.90
2019-03-29T14:47:22.850Z,26.73
2019-03-29T14:49:52.186Z,28.40
2019-03-29T14:52:20.596Z,28.27
2019-03-29T14:54:49.003Z,28.17
2019-03-29T14:57:17.394Z,27.55
2019-03-29T14:59:45.797Z,27.20
2019-03-29T15:02:14.196Z,27.85
2019-03-29T15:04:42.609Z,27.37
2019-03-29T15:07:11.163Z,25.57
2019-03-29T15:09:39.593Z,25.90
2019-03-29T15:12:08.042Z,27.82
2019-03-29T15:14:38.360Z,26.07
2019-03-29T15:17:06.896Z,25.85
2019-03-29T15:19:52.007Z,25.25
2019-03-29T15:22:20.397Z,28.30
2019-03-29T15:25:29.490Z,26.53
2019-03-29T15:27:57.882Z,26.25
2019-03-29T15:30:26.307Z,26.62
2019-03-29T15:33:14.689Z,26.85
2019-03-29T15:35:43.098Z,27.32
2019-03-29T15:39:16.679Z,27.10
2019-03-29T15:41:45.877Z,27.22
2019-03-29T15:44:14.279Z,27.15
2019-03-29T15:46:42.707Z,26.33
2019-03-29T15:49:11.101Z,26.95
2019-03-29T15:51:39.506Z,27.87
2019-03-29T15:54:07.928Z,24.95
2019-03-29T15:56:36.351Z,27.30
2019-03-29T15:59:04.745Z,26.52
2019-03-29T16:01:33.639Z,26.73
2019-03-29T16:04:02.037Z,26.87
2019-03-29T16:06:30.610Z,26.48
2019-03-29T16:08:59.217Z,27.93
2019-03-29T16:11:27.752Z,25.30
2019-03-29T16:13:56.177Z,27.62
2019-03-29T16:16:24.580Z,27.05
2019-03-29T16:18:52.987Z,27.25
2019-03-29T16:21:21.421Z,28.02
2019-03-29T16:23:49.809Z,25.85
2019-03-29T16:26:18.405Z,26.02
2019-03-29T16:28:46.824Z,25.90
2019-03-29T16:31:15.739Z,26.27
2019-03-29T16:33:44.683Z,25.32
2019-03-29T16:36:13.091Z,27.70
2019-03-29T16:38:41.945Z,26.12
2019-03-29T16:41:10.369Z,25.90
2019-03-29T16:43:38.789Z,25.45
2019-03-29T16:46:07.296Z,26.93
2019-03-29T16:48:35.711Z,26.33
2019-03-29T16:51:04.184Z,26.45
2019-03-29T16:53:32.589Z,26.07
2019-03-29T16:56:01.106Z,27.48
2019-03-29T16:58:29.508Z,24.75
2019-03-29T17:00:57.916Z,26.82
2019-03-29T17:03:27.419Z,27.67
2019-03-29T17:05:55.820Z,26.93
2019-03-29T17:08:24.300Z,26.87
2019-03-29T17:10:52.708Z,27.67
2019-03-29T17:13:21.324Z,27.13
2019-03-29T17:16:00.978Z,27.53
2019-03-29T17:18:29.243Z,26.12
2019-03-29T17:20:50.128Z,26.17
2019-03-29T17:23:18.527Z,26.62
2019-03-29T17:25:51.380Z,26.62
2019-03-29T17:28:23.507Z,25.32
2019-03-29T17:33:22.512Z,26.73
2019-03-29T17:35:54.206Z,27.32
2019-03-29T17:38:22.626Z,30.03
2019-03-29T17:40:51.037Z,26.42
2019-03-29T17:43:19.435Z,28.57
2019-03-29T17:45:47.852Z,27.55
2019-03-29T17:48:16.239Z,26.68
2019-03-29T17:50:48.552Z,26.60
2019-03-29T17:53:16.979Z,27.00
2019-03-29T17:55:45.380Z,28.40
2019-03-29T17:58:13.804Z,29.02
2019-03-29T18:00:42.837Z,29.87
2019-03-29T18:03:59.931Z,29.23
2019-03-29T18:11:58.132Z,28.10
2019-03-29T18:14:26.571Z,27.20
2019-03-29T18:18:33.720Z,28.02
2019-03-29T18:22:06.915Z,27.48
2019-03-29T18:24:34.637Z,25.97
2019-03-29T18:28:06.071Z,28.55
2019-03-29T18:30:37.024Z,29.35
2019-03-29T18:33:06.389Z,30.57
2019-03-29T18:35:34.893Z,33.50
2019-03-29T18:38:54.542Z,31.00
2019-03-29T18:41:23.020Z,30.00
2019-03-29T18:43:51.455Z,30.48
2019-03-29T18:46:44.712Z,30.47
2019-03-29T18:49:10.809Z,32.23
2019-03-29T18:51:39.219Z,33.25
2019-03-29T18:54:07.701Z,33.53
2019-03-29T18:56:36.113Z,34.30
2019-03-29T18:59:05.447Z,34.85
2019-03-29T19:01:33.934Z,34.50
2019-03-29T19:04:02.479Z,34.60
2019-03-29T19:06:30.840Z,37.28
2019-03-29T19:08:59.254Z,35.65
2019-03-29T19:11:28.760Z,35.75
2019-03-29T19:13:59.304Z,36.10
2019-03-29T19:16:27.740Z,37.35
2019-03-29T19:19:24.131Z,35.65
2019-03-29T19:21:52.524Z,35.52
2019-03-29T19:24:20.927Z,36.60
2019-03-29T19:26:51.759Z,33.92
2019-03-29T19:29:20.378Z,36.33
2019-03-29T19:31:48.764Z,37.48
2019-03-29T19:34:20.938Z,33.70
2019-03-29T19:36:49.333Z,37.35
2019-03-29T19:39:18.009Z,35.73
2019-03-29T19:41:46.377Z,37.83
2019-03-29T19:44:14.802Z,37.48
2019-03-29T19:46:43.253Z,34.50
2019-03-29T19:49:11.643Z,36.85
2019-03-29T19:51:40.055Z,35.90
2019-03-29T19:54:12.439Z,35.15
2019-03-29T19:56:41.581Z,39.20
2019-03-29T19:59:14.235Z,40.88
2019-03-29T20:01:42.632Z,39.35
2019-03-29T20:04:11.028Z,39.27
2019-03-29T20:06:39.490Z,37.55
2019-03-29T20:09:51.191Z,39.60
2019-03-29T20:12:19.594Z,39.33
2019-03-29T20:14:48.052Z,46.27
2019-03-29T20:17:26.898Z,47.15
2019-03-29T20:19:46.600Z,47.00
2019-03-29T20:23:09.442Z,48.98
2019-03-29T20:26:49.274Z,42.83
2019-03-29T20:31:54.716Z,46.85
2019-03-29T20:36:50.756Z,45.65
2019-03-29T20:39:19.143Z,47.05
2019-03-29T20:41:48.581Z,45.70
2019-03-29T20:44:17.218Z,43.05
2019-03-29T20:46:45.675Z,43.92
2019-03-29T20:49:14.099Z,43.70
2019-03-29T20:51:42.479Z,43.78
2019-03-29T20:54:10.919Z,48.73
2019-03-29T20:56:39.326Z,46.80
2019-03-29T20:59:07.741Z,45.43
2019-03-29T21:01:36.149Z,44.05
2019-03-29T21:04:04.627Z,42.53
2019-03-29T21:06:33.081Z,44.47
2019-03-29T21:09:01.466Z,45.73
2019-03-29T21:11:29.931Z,47.87
2019-03-29T21:13:58.315Z,48.55
2019-03-29T21:16:26.719Z,46.53
2019-03-29T21:18:55.123Z,46.08
2019-03-29T21:21:23.522Z,46.53
2019-03-29T21:23:51.942Z,47.20
2019-03-29T21:26:20.331Z,49.03
2019-03-29T21:28:48.725Z,45.45
2019-03-29T21:31:17.216Z,40.45
2019-03-29T21:33:47.723Z,40.33
2019-03-29T21:36:18.073Z,39.95
2019-03-29T21:38:48.320Z,44.50
2019-03-29T21:41:19.400Z,43.52
2019-03-29T21:43:47.855Z,42.62
2019-03-29T21:46:16.238Z,44.00
2019-03-29T21:48:44.657Z,45.12
2019-03-29T21:51:13.060Z,43.55
2019-03-29T21:53:43.796Z,41.58
2019-03-29T21:56:11.623Z,43.08
2019-03-29T21:58:44.073Z,40.30
2019-03-29T22:01:13.504Z,45.05
2019-03-29T22:03:41.901Z,43.55
2019-03-29T22:06:10.345Z,42.35
2019-03-29T22:08:39.684Z,41.18
2019-03-29T22:11:08.672Z,41.15
2019-03-29T22:13:42.182Z,41.90
2019-03-29T22:16:10.617Z,43.52
2019-03-29T22:18:39.007Z,43.23
2019-03-29T22:21:07.413Z,47.38
2019-03-29T22:23:35.825Z,46.70
2019-03-29T22:26:07.659Z,45.73
2019-03-29T22:28:37.907Z,51.90
2019-03-29T22:31:07.209Z,53.85
2019-03-29T22:33:35.701Z,54.40
2019-03-29T22:36:06.493Z,45.55
2019-03-29T22:38:35.925Z,33.80
2019-03-29T22:41:04.316Z,19.80
2019-03-29T22:43:32.728Z,18.12
2019-03-29T22:46:02.138Z,19.02
2019-03-29T22:48:30.526Z,21.25
2019-03-29T22:50:58.972Z,22.97
2019-03-29T22:53:27.394Z,22.60
2019-03-29T22:55:55.800Z,28.87
2019-03-29T22:58:24.300Z,29.70
2019-03-29T23:00:55.305Z,36.93
2019-03-29T23:03:24.046Z,42.95
2019-03-29T23:05:52.480Z,42.38
2019-03-29T23:08:22.001Z,38.25
2019-03-29T23:10:50.418Z,40.45
2019-03-29T23:13:18.810Z,41.98
2019-03-29T23:15:47.230Z,41.02
2019-03-29T23:18:15.684Z,49.13
2019-03-29T23:20:44.042Z,50.17
2019-03-29T23:23:12.464Z,53.55
2019-03-29T23:25:43.413Z,53.13
2019-03-29T23:28:12.912Z,51.48
2019-03-29T23:30:41.316Z,45.00
2019-03-29T23:33:09.716Z,46.35
2019-03-29T23:35:38.114Z,44.70
2019-03-29T23:38:06.548Z,35.70
2019-03-29T23:40:34.931Z,35.25
2019-03-29T23:43:03.320Z,27.62
2019-03-29T23:45:31.734Z,23.35
2019-03-29T23:48:00.130Z,23.55
2019-03-29T23:50:28.532Z,35.43
2019-03-29T23:52:56.931Z,41.10
2019-03-29T23:55:25.365Z,46.13
2019-03-29T23:57:53.771Z,44.20
